Latest Weather Observations for Douglas River

IDD60801

Issued at 11:01 am CST Tuesday 28 June 2016 (issued every 30 minutes, with the page automatically refreshed every 10 minutes)

About weather observations | Map of weather stations | Latest weather observations for NT | Other Formats
Station Details ID: 014901 Name: DOUGLAS RIVER Lat: -13.83 Lon: 131.19 Height: 42.8 m
Data from the previous 72 hours. | See also: Recent months at Douglas River
Date/Time
CST
Temp
°C
App
Temp
°C
Dew
Point
°C
Rel
Hum
%
Delta-T
°C
Wind Press
QNH
hPa
Press
MSL
hPa
Rain since
9am
mm
Dir  Spd
km/h
Gust
km/h
Spd
kts
Gust
kts
28/11:00am 28.3 24.5 13.7 40 8.7 SE 26 33 14 18 1016.3 1016.1 0.0
28/10:30am 26.8 24.0 13.2 43 8.0 SE 20 30 11 16 1016.4 1016.2 0.0
28/10:00am 25.6 21.8 12.4 43 7.6 SE 24 32 13 17 1016.6 1016.4 0.0
28/09:30am 24.6 20.9 11.5 44 7.4 SE 22 33 12 18 1016.6 1016.4 0.0
28/09:00am 23.0 20.0 12.0 50 6.2 SE 19 26 10 14 1016.5 1016.3 0.0
28/08:30am 21.5 18.5 12.1 55 5.3 SE 19 24 10 13 1016.1 1015.9 0.0
28/08:00am 19.6 18.0 12.7 64 3.9 SE 13 17 7 9 1015.8 1015.6 0.0
28/07:30am 18.5 17.5 12.4 67 3.4 SE 9 11 5 6 1015.4 1015.2 0.0
28/07:00am 18.7 17.4 12.6 67 3.4 SE 11 13 6 7 1015.1 1014.9 0.0
28/06:30am 18.7 17.5 12.8 68 3.3 SE 11 13 6 7 1014.7 1014.5 0.0
28/06:00am 19.0 18.3 13.2 69 3.3 SE 9 11 5 6 1014.3 1014.1 0.0
28/05:30am 19.3 18.3 13.3 68 3.4 SE 11 13 6 7 1014.0 1013.8 0.0
28/05:00am 19.6 19.0 13.5 68 3.5 SE 9 11 5 6 1013.8 1013.6 0.0
28/04:30am 19.9 19.1 14.0 69 3.4 SE 11 13 6 7 1013.7 1013.5 0.0
28/04:00am 20.8 20.0 14.1 65 3.9 SSE 11 13 6 7 1013.6 1013.4 0.0
28/03:30am 22.1 22.1 14.2 61 4.6 SE 7 9 4 5 1013.9 1013.7 0.0
28/03:00am 21.1 21.2 15.6 71 3.3 SE 9 9 5 5 1014.0 1013.8 0.0
28/02:30am 21.7 22.9 15.9 69 3.5 ESE 4 6 2 3 1014.1 1013.9 0.0
28/02:00am 22.2 24.4 16.4 69 3.5 CALM 0 0 0 0 1014.4 1014.2 0.0
28/01:30am 23.4 24.4 16.3 64 4.3 SSW 6 15 3 8 1014.5 1014.3 0.0
28/01:00am 22.7 23.4 16.1 66 4.0 N 7 9 4 5 1014.6 1014.4 0.0
28/12:30am 22.6 23.0 16.2 67 3.9 SE 9 13 5 7 1014.2 1014.0 0.0
28/12:00am 23.2 25.0 16.5 66 4.1 S 2 7 1 4 1014.1 1013.9 0.0
 
Date/Time
CST
Temp
°C
App
Temp
°C
Dew
Point
°C
Rel
Hum
%
Delta-T
°C
Wind Press
QNH
hPa
Press
MSL
hPa
Rain since
9am
mm
Dir  Spd
km/h
Gust
km/h
Spd
kts
Gust
kts
27/11:30pm 23.6 24.6 16.4 64 4.4 SSE 6 9 3 5 1014.1 1013.9 0.0
27/11:00pm 24.0 25.8 16.5 63 4.6 SSE 2 7 1 4 1013.9 1013.7 0.0
27/10:30pm 24.1 25.0 16.0 60 4.9 SE 6 7 3 4 1013.9 1013.7 0.0
27/10:00pm 24.1 24.8 16.1 61 4.9 SSE 7 9 4 5 1013.7 1013.5 0.0
27/09:30pm 24.3 25.1 16.3 61 4.9 SE 7 9 4 5 1013.7 1013.5 0.0
27/09:00pm 24.9 25.2 16.1 58 5.4 SE 9 9 5 5 1013.4 1013.2 0.0
27/08:30pm 24.9 25.2 16.1 58 5.4 SE 9 11 5 6 1013.1 1012.9 0.0
27/08:00pm 26.2 26.3 15.5 51 6.5 SE 9 11 5 6 1012.7 1012.5 0.0
27/07:30pm 26.6 27.1 15.6 50 6.7 SE 7 9 4 5 1012.3 1012.1 0.0
27/07:00pm 27.5 28.7 16.8 52 6.7 S 6 7 3 4 1011.9 1011.7 0.0
27/06:30pm 28.4 29.3 16.5 48 7.4 S 7 7 4 4 1011.6 1011.4 0.0
27/06:00pm 30.4 30.6 15.7 41 9.1 SE 9 13 5 7 1011.3 1011.1 0.0
27/05:30pm 32.7 29.6 12.1 28 12.2 ESE 20 28 11 15 1010.9 1010.7 0.0
27/05:00pm 33.0 30.5 13.5 30 11.8 SSE 19 28 10 15 1010.6 1010.4 0.0
27/04:30pm 33.4 30.3 12.3 27 12.6 SE 20 30 11 16 1010.4 1010.2 0.0
27/04:00pm 33.9 31.4 12.3 27 12.9 ESE 17 28 9 15 1010.4 1010.2 0.0
27/03:30pm 34.2 31.2 11.8 25 13.3 ESE 19 32 10 17 1010.3 1010.1 0.0
27/03:00pm 34.1 31.3 12.6 27 12.9 SE 19 33 10 18 1010.6 1010.4 0.0
27/02:30pm 34.0 30.4 12.0 26 13.1 ESE 22 33 12 18 1011.0 1010.8 0.0
27/02:00pm 33.9 30.8 12.3 27 12.9 ESE 20 30 11 16 1011.5 1011.3 0.0
27/01:30pm 33.1 30.7 13.7 31 11.8 SSE 19 28 10 15 1011.9 1011.7 0.0
27/01:00pm 32.8 31.7 14.4 33 11.3 SSE 13 22 7 12 1012.6 1012.4 0.0
27/12:30pm 32.6 30.3 14.1 32 11.3 SE 19 30 10 16 1013.2 1013.0 0.0
27/12:00pm 31.5 29.5 14.0 34 10.6 SE 17 26 9 14 1013.7 1013.5 0.0
27/11:30am 30.6 28.7 14.1 36 10.0 SSE 17 24 9 13 1013.9 1013.7 0.0
27/11:00am 29.7 27.8 14.1 38 9.4 SSE 17 24 9 13 1014.3 1014.1 0.0
27/10:30am 28.6 26.9 14.8 43 8.4 SE 17 24 9 13 1014.5 1014.3 0.0
27/10:00am 27.1 26.9 15.7 49 7.0 SE 11 19 6 10 1014.8 1014.6 0.0
27/09:30am 24.6 24.9 17.0 62 4.7 SE 11 17 6 9 1014.9 1014.7 0.0
27/09:00am 21.3 23.1 19.6 90 1.1 SE 9 9 5 5 1014.8 1014.6 0.0
27/08:30am 18.6 20.3 18.1 97 0.3 ESE 6 7 3 4 1014.5 1014.3 0.0
27/08:00am 17.6 19.2 16.9 96 0.4 NNE 4 9 2 5 1013.7 1013.5 0.0
27/07:30am 16.6 18.6 15.9 96 0.4 CALM 0 0 0 0 1013.4 1013.2 0.0
27/07:00am 16.4 18.3 15.7 96 0.4 CALM 0 0 0 0 1013.0 1012.8 0.0
27/06:30am 17.2 19.4 16.4 95 0.5 CALM 0 0 0 0 1012.7 1012.5 0.0
27/06:00am 18.1 20.8 17.8 98 0.2 CALM 0 0 0 0 1012.6 1012.4 0.0
27/05:30am 18.2 20.8 17.5 96 0.4 CALM 0 0 0 0 1012.5 1012.3 0.0
27/05:00am 17.6 20.1 17.3 98 0.2 CALM 0 2 0 1 1012.2 1012.0 0.0
27/04:30am 17.4 18.7 17.1 98 0.2 SE 6 7 3 4 1012.1 1011.9 0.0
27/04:00am 17.0 19.2 16.5 97 0.3 CALM 0 0 0 0 1012.1 1011.9 0.0
27/03:30am 16.9 18.8 15.7 93 0.7 CALM 0 0 0 0 1012.0 1011.8 0.0
27/03:00am 19.3 21.5 18.3 94 0.6 N 4 7 2 4 1012.0 1011.8 0.0
27/02:30am 18.2 20.6 16.9 92 0.8 CALM 0 0 0 0 1012.3 1012.1 0.0
27/02:00am 18.5 20.6 17.2 92 0.8 S 2 6 1 3 1012.8 1012.6 0.0
27/01:30am 20.0 22.5 18.1 89 1.2 N 2 6 1 3 1012.8 1012.6 0.0
27/01:00am 19.4 20.6 17.4 88 1.2 WNW 7 7 4 4 1013.0 1012.8 0.0
27/12:30am 19.7 21.4 18.1 90 1.0 NW 6 13 3 7 1012.9 1012.7 0.0
27/12:00am 19.1 21.8 17.8 92 0.8 CALM 0 0 0 0 1012.8 1012.6 0.0
 
Date/Time
CST
Temp
°C
App
Temp
°C
Dew
Point
°C
Rel
Hum
%
Delta-T
°C
Wind Press
QNH
hPa
Press
MSL
hPa
Rain since
9am
mm
Dir  Spd
km/h
Gust
km/h
Spd
kts
Gust
kts
26/11:30pm 19.7 22.4 17.8 89 1.2 CALM 0 0 0 0 1012.7 1012.5 0.0
26/11:00pm 21.5 23.3 17.4 77 2.5 NNE 4 6 2 3 1012.7 1012.5 0.0
26/10:30pm 21.5 24.0 19.0 86 1.6 NNE 4 7 2 4 1012.6 1012.4 0.0
26/10:00pm 23.1 26.3 18.8 77 2.7 CALM 0 0 0 0 1012.5 1012.3 0.0
26/09:30pm 23.2 26.5 19.1 78 2.6 CALM 0 0 0 0 1012.3 1012.1 0.0
26/09:00pm 23.9 27.1 18.9 73 3.2 CALM 0 0 0 0 1012.2 1012.0 0.0
26/08:30pm 24.8 28.5 19.9 74 3.2 CALM 0 0 0 0 1012.0 1011.8 0.0
26/08:00pm 25.6 28.6 18.5 65 4.5 CALM 0 0 0 0 1011.7 1011.5 0.0
26/07:30pm 27.3 30.6 19.1 61 5.3 CALM 0 0 0 0 1011.4 1011.2 0.0
26/07:00pm 28.1 30.5 18.8 57 6.0 SW 4 7 2 4 1011.0 1010.8 0.0
26/06:30pm 28.8 30.7 18.9 55 6.4 S 7 11 4 6 1010.9 1010.7 0.0
26/06:00pm 30.2 32.0 19.5 52 7.0 S 9 11 5 6 1010.6 1010.4 0.0
26/05:30pm 32.3 32.6 17.1 40 9.7 SSE 11 15 6 8 1010.2 1010.0 0.0
26/05:00pm 33.5 33.3 15.8 34 11.1 S 11 15 6 8 1009.9 1009.7 0.0
26/04:30pm 34.0 34.2 16.8 35 11.0 S 11 13 6 7 1009.8 1009.6 0.0
26/04:00pm 34.2 34.8 15.8 33 11.6 SE 7 19 4 10 1009.7 1009.5 0.0
26/03:30pm 33.3 33.9 15.8 35 11.0 ESE 7 15 4 8 1009.7 1009.5 0.0
26/03:00pm 33.4 33.7 17.0 37 10.5 SE 11 17 6 9 1009.9 1009.7 0.0
26/02:30pm 33.5 33.3 16.7 36 10.7 ESE 13 26 7 14 1010.2 1010.0 0.0
26/02:00pm 33.5 34.4 16.7 36 10.7 SSE 7 13 4 7 1010.7 1010.5 0.0
26/01:30pm 34.2 34.9 17.0 36 11.0 NE 9 20 5 11 1011.4 1011.2 0.0
26/01:00pm 32.5 33.7 17.3 40 9.7 ESE 7 11 4 6 1012.0 1011.8 0.0
26/12:30pm 32.8 32.8 17.3 39 9.9 E 13 20 7 11 1012.8 1012.6 0.0
26/12:00pm 31.8 32.8 17.8 43 9.0 NNE 9 15 5 8 1013.4 1013.2 0.0
26/11:30am 31.6 33.0 17.7 43 8.9 NE 7 11 4 6 1013.9 1013.7 0.0
26/11:00am 30.3 32.1 18.3 48 7.7 NNE 6 13 3 7 1014.4 1014.2 0.0
26/10:30am 28.9 30.4 18.1 52 6.9 NNE 7 11 4 6 1014.7 1014.5 0.0
26/10:00am 28.1 29.9 18.2 55 6.3 NNE 6 9 3 5 1014.7 1014.5 0.0
26/09:30am 25.9 28.1 17.4 59 5.3 NE 2 7 1 4 1014.6 1014.4 0.0
26/09:00am 22.9 23.6 16.0 65 4.2 SE 7 11 4 6 1014.4 1014.2 0.0
26/08:30am 20.0 20.9 16.2 79 2.3 E 6 7 3 4 1013.9 1013.7 0.0
26/08:00am 18.6 19.7 15.7 83 1.7 E 4 7 2 4 1013.6 1013.4 0.0
26/07:30am 18.2 20.0 15.5 84 1.6 CALM 0 0 0 0 1013.4 1013.2 0.0
26/07:00am 18.5 20.3 15.4 82 1.8 CALM 0 0 0 0 1013.2 1013.0 0.0
26/06:30am 18.6 19.2 15.2 80 2.0 ESE 6 7 3 4 1012.9 1012.7 0.0
26/06:00am 18.1 18.8 15.7 86 1.4 ENE 6 7 3 4 1012.5 1012.3 0.0
26/05:30am 18.8 20.7 15.8 83 1.8 CALM 0 7 0 4 1012.2 1012.0 0.0
26/05:00am 18.5 19.4 16.0 85 1.5 ENE 6 9 3 5 1012.1 1011.9 0.0
26/04:30am 19.2 20.1 16.2 83 1.8 E 6 7 3 4 1011.9 1011.7 0.0
26/04:00am 18.6 19.6 16.3 86 1.4 SE 6 9 3 5 1012.1 1011.9 0.0
26/03:30am 19.8 20.1 16.1 79 2.2 ESE 9 11 5 6 1012.2 1012.0 0.0
26/03:00am 18.6 20.8 16.4 87 1.3 CALM 0 0 0 0 1012.3 1012.1 0.0
26/02:30am 18.8 20.8 15.9 83 1.7 CALM 0 0 0 0 1012.3 1012.1 0.0
26/02:00am 19.7 22.0 16.7 83 1.8 CALM 0 0 0 0 1012.2 1012.0 0.0
26/01:30am 20.1 21.2 16.6 80 2.1 W 6 7 3 4 1012.3 1012.1 0.0
26/01:00am 19.9 20.6 16.1 79 2.3 WNW 7 11 4 6 1012.4 1012.2 0.0
26/12:30am 21.7 22.2 15.5 68 3.7 NNW 7 9 4 5 1012.4 1012.2 0.0
26/12:00am 21.2 22.6 16.4 74 2.9 NNW 4 6 2 3 1012.4 1012.2 0.0
 
Date/Time
CST
Temp
°C
App
Temp
°C
Dew
Point
°C
Rel
Hum
%
Delta-T
°C
Wind Press
QNH
hPa
Press
MSL
hPa
Rain since
9am
mm
Dir  Spd
km/h
Gust
km/h
Spd
kts
Gust
kts
25/11:30pm 21.5 23.9 17.1 76 2.7 CALM 0 0 0 0 1012.4 1012.2 0.0
25/11:00pm 23.5 24.1 15.3 60 4.9 ESE 6 7 3 4 1012.5 1012.3 0.0
25/10:30pm 23.6 24.3 15.5 60 4.9 ESE 6 7 3 4 1012.5 1012.3 0.0
25/10:00pm 24.5 25.1 15.2 56 5.6 ESE 6 7 3 4 1012.5 1012.3 0.0
25/09:30pm 24.5 24.8 16.0 59 5.2 SE 9 9 5 5 1012.4 1012.2 0.0
25/09:00pm 25.1 25.9 15.9 56 5.6 SE 6 9 3 5 1012.4 1012.2 0.0
25/08:30pm 25.8 27.9 16.2 55 5.9 CALM 0 0 0 0 1012.2 1012.0 0.0
25/08:00pm 26.1 28.7 17.5 59 5.4 CALM 0 0 0 0 1011.7 1011.5 0.0
25/07:30pm 26.4 28.9 17.3 57 5.7 CALM 0 0 0 0 1011.4 1011.2 0.0
25/07:00pm 27.7 29.5 16.4 50 7.0 E 2 6 1 3 1011.1 1010.9 0.0
25/06:30pm 29.1 31.8 17.8 50 7.2 CALM 0 0 0 0 1010.9 1010.7 0.0
25/06:00pm 30.6 31.4 15.8 40 9.2 ESE 6 9 3 5 1010.5 1010.3 0.0
25/05:30pm 33.2 34.6 14.3 32 11.6 CALM 0 4 0 2 1010.1 1009.9 0.0
25/05:00pm 34.2 34.2 13.5 28 12.6 E 6 11 3 6 1009.8 1009.6 0.0
25/04:30pm 34.4 34.5 13.8 29 12.6 E 6 13 3 7 1009.7 1009.5 0.0
25/04:00pm 34.4 34.2 13.6 28 12.7 NNE 7 13 4 7 1009.8 1009.6 0.0
25/03:30pm 34.4 34.9 15.0 31 12.1 N 6 9 3 5 1009.9 1009.7 0.0
25/03:00pm 34.5 34.8 15.1 31 12.1 NE 7 13 4 7 1010.2 1010.0 0.0
25/02:30pm 33.6 33.9 14.9 32 11.6 N 7 11 4 6 1010.6 1010.4 0.0
25/02:00pm 34.3 34.8 15.5 32 11.8 NNE 7 15 4 8 1010.9 1010.7 0.0
25/01:30pm 33.7 33.2 15.9 34 11.2 ENE 13 26 7 14 1011.5 1011.3 0.0
25/01:00pm 32.3 32.9 16.7 39 9.9 E 9 17 5 9 1012.0 1011.8 0.0
25/12:30pm 33.2 31.5 16.2 36 10.7 E 20 41 11 22 1012.3 1012.1 0.0
25/12:00pm 30.6 30.9 17.0 44 8.6 E 11 24 6 13 1012.9 1012.7 0.0
25/11:30am 30.6 30.7 18.3 47 7.9 S 15 26 8 14 1013.3 1013.1 0.0

Other Formats:

Comma delimited format used in spreadsheet applications
http://www.bom.gov.au/fwo/IDD60801/IDD60801.94128.axf

JavaScript Object Notation format (JSON) in row-major order
http://www.bom.gov.au/fwo/IDD60801/IDD60801.94128.json